sensor_id;sensor_type;location;lat;lon;timestamp;pressure;altitude;pressure_sealevel;temperature;humidity
46129;BME280;31860;45.186;5.790;2024-02-26T16:32:59;97226.59;;;16.90;100.00
46129;BME280;31860;45.186;5.790;2024-02-26T16:35:25;97233.84;;;16.87;100.00
46129;BME280;31860;45.186;5.790;2024-02-26T16:37:50;97231.38;;;16.84;100.00
46129;BME280;31860;45.186;5.790;2024-02-26T16:40:15;97235.88;;;16.82;100.00
46129;BME280;31860;45.186;5.790;2024-02-26T16:42:41;97242.19;;;16.79;100.00
46129;BME280;31860;45.186;5.790;2024-02-26T16:45:07;97244.81;;;16.79;100.00
46129;BME280;31860;45.186;5.790;2024-02-26T16:47:33;97252.72;;;16.79;100.00
46129;BME280;31860;45.186;5.790;2024-02-26T16:49:59;97253.66;;;16.78;100.00
46129;BME280;31860;45.186;5.790;2024-02-26T16:52:24;97253.75;;;16.77;100.00
46129;BME280;31860;45.186;5.790;2024-02-26T16:54:51;97256.47;;;16.75;100.00
46129;BME280;31860;45.186;5.790;2024-02-26T16:57:16;97261.84;;;16.74;100.00
46129;BME280;31860;45.186;5.790;2024-02-26T16:59:42;97269.06;;;16.70;100.00
46129;BME280;31860;45.186;5.790;2024-02-26T17:02:07;97278.84;;;16.68;100.00
46129;BME280;31860;45.186;5.790;2024-02-26T17:04:33;97285.03;;;16.67;100.00
46129;BME280;31860;45.186;5.790;2024-02-26T17:06:59;97282.50;;;16.66;100.00
46129;BME280;31860;45.186;5.790;2024-02-26T17:09:25;97290.59;;;16.63;100.00
46129;BME280;31860;45.186;5.790;2024-02-26T17:11:50;97290.59;;;16.63;100.00
46129;BME280;31860;45.186;5.790;2024-02-26T17:14:18;97299.50;;;16.60;100.00
46129;BME280;31860;45.186;5.790;2024-02-26T17:16:43;97301.53;;;16.55;100.00
46129;BME280;31860;45.186;5.790;2024-02-26T17:19:09;97301.88;;;16.49;100.00
46129;BME280;31860;45.186;5.790;2024-02-26T17:21:35;97307.25;;;16.46;100.00
46129;BME280;31860;45.186;5.790;2024-02-26T17:24:00;97313.66;;;16.42;100.00
46129;BME280;31860;45.186;5.790;2024-02-26T17:26:26;97321.78;;;16.38;100.00
46129;BME280;31860;45.186;5.790;2024-02-26T17:28:52;97322.03;;;16.33;100.00
46129;BME280;31860;45.186;5.790;2024-02-26T17:31:17;97324.91;;;16.29;100.00
46129;BME280;31860;45.186;5.790;2024-02-26T17:33:48;97325.16;;;16.24;100.00
46129;BME280;31860;45.186;5.790;2024-02-26T17:36:15;97322.78;;;16.20;100.00
46129;BME280;31860;45.186;5.790;2024-02-26T17:38:40;97331.91;;;16.12;100.00
46129;BME280;31860;45.186;5.790;2024-02-26T17:41:07;97333.16;;;16.05;100.00
46129;BME280;31860;45.186;5.790;2024-02-26T17:43:33;97345.88;;;15.97;100.00
46129;BME280;31860;45.186;5.790;2024-02-26T17:45:59;97338.44;;;15.88;100.00
46129;BME280;31860;45.186;5.790;2024-02-26T17:48:24;97351.81;;;15.84;100.00
46129;BME280;31860;45.186;5.790;2024-02-26T17:50:49;97342.72;;;15.74;100.00
46129;BME280;31860;45.186;5.790;2024-02-26T17:53:15;97350.91;;;15.68;100.00
46129;BME280;31860;45.186;5.790;2024-02-26T17:55:41;97355.69;;;15.60;100.00
46129;BME280;31860;45.186;5.790;2024-02-26T17:58:06;97364.75;;;15.54;100.00
46129;BME280;31860;45.186;5.790;2024-02-26T18:00:32;97368.69;;;15.46;100.00
46129;BME280;31860;45.186;5.790;2024-02-26T18:02:58;97375.13;;;15.39;100.00
46129;BME280;31860;45.186;5.790;2024-02-26T18:05:24;97374.66;;;15.31;100.00
46129;BME280;31860;45.186;5.790;2024-02-26T18:07:50;97373.19;;;15.25;100.00
46129;BME280;31860;45.186;5.790;2024-02-26T18:10:15;97376.81;;;15.23;100.00
46129;BME280;31860;45.186;5.790;2024-02-26T18:12:41;97375.25;;;15.18;100.00
46129;BME280;31860;45.186;5.790;2024-02-26T18:15:06;97377.00;;;15.18;100.00
46129;BME280;31860;45.186;5.790;2024-02-26T18:17:35;97380.78;;;15.12;100.00
46129;BME280;31860;45.186;5.790;2024-02-26T18:20:02;97375.81;;;15.06;100.00
46129;BME280;31860;45.186;5.790;2024-02-26T18:22:31;97386.63;;;15.00;100.00
46129;BME280;31860;45.186;5.790;2024-02-26T18:24:57;97384.28;;;14.94;100.00
46129;BME280;31860;45.186;5.790;2024-02-26T18:27:23;97392.59;;;14.85;100.00
46129;BME280;31860;45.186;5.790;2024-02-26T18:29:48;97401.66;;;14.78;100.00
46129;BME280;31860;45.186;5.790;2024-02-26T18:32:13;97407.09;;;14.75;100.00
46129;BME280;31860;45.186;5.790;2024-02-26T18:34:41;97412.34;;;14.75;100.00
46129;BME280;31860;45.186;5.790;2024-02-26T18:37:07;97415.91;;;14.74;100.00
46129;BME280;31860;45.186;5.790;2024-02-26T18:39:32;97415.16;;;14.71;100.00
46129;BME280;31860;45.186;5.790;2024-02-26T18:41:58;97424.88;;;14.69;100.00
46129;BME280;31860;45.186;5.790;2024-02-26T18:44:24;97424.84;;;14.70;100.00
46129;BME280;31860;45.186;5.790;2024-02-26T18:46:49;97433.63;;;14.69;100.00
46129;BME280;31860;45.186;5.790;2024-02-26T18:49:15;97431.06;;;14.68;100.00
46129;BME280;31860;45.186;5.790;2024-02-26T18:51:41;97436.41;;;14.66;100.00
46129;BME280;31860;45.186;5.790;2024-02-26T18:54:06;97442.78;;;14.61;100.00
46129;BME280;31860;45.186;5.790;2024-02-26T18:56:32;97458.81;;;14.55;100.00
46129;BME280;31860;45.186;5.790;2024-02-26T18:58:57;97460.00;;;14.48;100.00
46129;BME280;31860;45.186;5.790;2024-02-26T19:01:23;97475.06;;;14.44;100.00
46129;BME280;31860;45.186;5.790;2024-02-26T19:03:48;97476.09;;;14.40;100.00
46129;BME280;31860;45.186;5.790;2024-02-26T19:06:14;97484.97;;;14.38;100.00
46129;BME280;31860;45.186;5.790;2024-02-26T19:08:39;97484.34;;;14.31;100.00
46129;BME280;31860;45.186;5.790;2024-02-26T19:11:09;97485.34;;;14.29;100.00
46129;BME280;31860;45.186;5.790;2024-02-26T19:13:34;97489.78;;;14.26;100.00
46129;BME280;31860;45.186;5.790;2024-02-26T19:16:00;97484.53;;;14.26;100.00
46129;BME280;31860;45.186;5.790;2024-02-26T19:18:26;97494.19;;;14.26;100.00
46129;BME280;31860;45.186;5.790;2024-02-26T19:20:52;97495.09;;;14.25;100.00
46129;BME280;31860;45.186;5.790;2024-02-26T19:23:17;97506.50;;;14.24;100.00
46129;BME280;31860;45.186;5.790;2024-02-26T19:25:42;97504.09;;;14.19;100.00
46129;BME280;31860;45.186;5.790;2024-02-26T19:28:08;97511.28;;;14.14;100.00
46129;BME280;31860;45.186;5.790;2024-02-26T19:30:34;97508.88;;;14.10;100.00
46129;BME280;31860;45.186;5.790;2024-02-26T19:32:59;97511.53;;;14.08;100.00
46129;BME280;31860;45.186;5.790;2024-02-26T19:35:25;97511.53;;;14.08;100.00
46129;BME280;31860;45.186;5.790;2024-02-26T19:37:50;97516.69;;;14.11;100.00
46129;BME280;31860;45.186;5.790;2024-02-26T19:40:15;97527.13;;;14.13;100.00
46129;BME280;31860;45.186;5.790;2024-02-26T19:42:41;97530.66;;;14.12;100.00
46129;BME280;31860;45.186;5.790;2024-02-26T19:45:07;97529.19;;;14.05;100.00
46129;BME280;31860;45.186;5.790;2024-02-26T19:47:34;97522.56;;;13.96;100.00
46129;BME280;31860;45.186;5.790;2024-02-26T19:50:03;97532.63;;;13.85;100.00
46129;BME280;31860;45.186;5.790;2024-02-26T19:52:28;97534.53;;;13.82;100.00
46129;BME280;31860;45.186;5.790;2024-02-26T19:54:54;97546.28;;;13.72;100.00
46129;BME280;31860;45.186;5.790;2024-02-26T19:57:19;97553.38;;;13.70;100.00
46129;BME280;31860;45.186;5.790;2024-02-26T19:59:45;97550.91;;;13.65;100.00
46129;BME280;31860;45.186;5.790;2024-02-26T20:02:10;97557.03;;;13.66;100.00
46129;BME280;31860;45.186;5.790;2024-02-26T20:04:35;97571.91;;;13.65;100.00
46129;BME280;31860;45.186;5.790;2024-02-26T20:07:01;97561.47;;;13.64;100.00
46129;BME280;31860;45.186;5.790;2024-02-26T20:09:26;97568.59;;;13.60;100.00
46129;BME280;31860;45.186;5.790;2024-02-26T20:11:55;97573.00;;;13.60;100.00
46129;BME280;31860;45.186;5.790;2024-02-26T20:14:22;97587.94;;;13.58;100.00
46129;BME280;31860;45.186;5.790;2024-02-26T20:16:48;97586.97;;;13.60;100.00
46129;BME280;31860;45.186;5.790;2024-02-26T20:19:13;97584.41;;;13.59;100.00
46129;BME280;31860;45.186;5.790;2024-02-26T20:21:38;97598.50;;;13.56;100.00
46129;BME280;31860;45.186;5.790;2024-02-26T20:24:07;97594.97;;;13.57;100.00
46129;BME280;31860;45.186;5.790;2024-02-26T20:26:37;97601.03;;;13.58;100.00
46129;BME280;31860;45.186;5.790;2024-02-26T20:29:02;97602.78;;;13.59;100.00
46129;BME280;31860;45.186;5.790;2024-02-26T20:31:28;97610.56;;;13.60;100.00
46129;BME280;31860;45.186;5.790;2024-02-26T20:33:54;97613.13;;;13.62;100.00
46129;BME280;31860;45.186;5.790;2024-02-26T20:36:21;97609.72;;;13.60;100.00
46129;BME280;31860;45.186;5.790;2024-02-26T20:38:46;97623.03;;;13.55;100.00
46129;BME280;31860;45.186;5.790;2024-02-26T20:41:17;97626.47;;;13.56;100.00
46129;BME280;31860;45.186;5.790;2024-02-26T20:43:42;97646.69;;;13.54;100.00
46129;BME280;31860;45.186;5.790;2024-02-26T20:46:07;97657.13;;;13.55;100.00
46129;BME280;31860;45.186;5.790;2024-02-26T20:48:33;97655.47;;;13.53;100.00
46129;BME280;31860;45.186;5.790;2024-02-26T20:50:59;97660.81;;;13.50;100.00
46129;BME280;31860;45.186;5.790;2024-02-26T20:53:24;97655.69;;;13.47;100.00
46129;BME280;31860;45.186;5.790;2024-02-26T20:55:49;97663.59;;;13.45;100.00
46129;BME280;31860;45.186;5.790;2024-02-26T20:58:15;97681.06;;;13.46;100.00
46129;BME280;31860;45.186;5.790;2024-02-26T21:00:40;97670.66;;;13.43;100.00
46129;BME280;31860;45.186;5.790;2024-02-26T21:03:07;97667.16;;;13.44;100.00
46129;BME280;31860;45.186;5.790;2024-02-26T21:05:37;97663.75;;;13.41;100.00
46129;BME280;31860;45.186;5.790;2024-02-26T21:08:03;97662.00;;;13.41;100.00
46129;BME280;31860;45.186;5.790;2024-02-26T21:10:29;97664.53;;;13.44;100.00
46129;BME280;31860;45.186;5.790;2024-02-26T21:12:55;97665.34;;;13.46;100.00
46129;BME280;31860;45.186;5.790;2024-02-26T21:15:21;97670.31;;;13.52;100.00
46129;BME280;31860;45.186;5.790;2024-02-26T21:17:47;97665.09;;;13.52;100.00
46129;BME280;31860;45.186;5.790;2024-02-26T21:20:13;97667.69;;;13.54;100.00
46129;BME280;31860;45.186;5.790;2024-02-26T21:22:40;97672.13;;;13.52;100.00
46129;BME280;31860;45.186;5.790;2024-02-26T21:25:09;97667.91;;;13.48;100.00
46129;BME280;31860;45.186;5.790;2024-02-26T21:27:34;97676.59;;;13.48;100.00
46129;BME280;31860;45.186;5.790;2024-02-26T21:29:59;97672.34;;;13.46;100.00
46129;BME280;31860;45.186;5.790;2024-02-26T21:32:25;97680.22;;;13.46;100.00
46129;BME280;31860;45.186;5.790;2024-02-26T21:34:50;97686.34;;;13.45;100.00
46129;BME280;31860;45.186;5.790;2024-02-26T21:37:15;97682.03;;;13.44;100.00
46129;BME280;31860;45.186;5.790;2024-02-26T21:39:41;97680.22;;;13.46;100.00
46129;BME280;31860;45.186;5.790;2024-02-26T21:42:06;97684.53;;;13.47;100.00
46129;BME280;31860;45.186;5.790;2024-02-26T21:44:31;97682.72;;;13.49;100.00
46129;BME280;31860;45.186;5.790;2024-02-26T21:46:57;97686.13;;;13.51;100.00
46129;BME280;31860;45.186;5.790;2024-02-26T21:49:22;97682.63;;;13.52;100.00
46129;BME280;31860;45.186;5.790;2024-02-26T21:51:48;97691.28;;;13.54;100.00
46129;BME280;31860;45.186;5.790;2024-02-26T21:54:14;97691.16;;;13.57;100.00
46129;BME280;31860;45.186;5.790;2024-02-26T21:56:40;97690.16;;;13.61;100.00
46129;BME280;31860;45.186;5.790;2024-02-26T21:59:06;97700.50;;;13.64;100.00
46129;BME280;31860;45.186;5.790;2024-02-26T22:01:33;97698.75;;;13.64;100.00
46129;BME280;31860;45.186;5.790;2024-02-26T22:03:58;97706.63;;;13.64;100.00
46129;BME280;31860;45.186;5.790;2024-02-26T22:06:24;97712.00;;;13.61;100.00
46129;BME280;31860;45.186;5.790;2024-02-26T22:08:49;97706.84;;;13.58;100.00
46129;BME280;31860;45.186;5.790;2024-02-26T22:11:14;97707.72;;;13.59;100.00
46129;BME280;31860;45.186;5.790;2024-02-26T22:13:40;97708.59;;;13.58;100.00
46129;BME280;31860;45.186;5.790;2024-02-26T22:16:05;97713.81;;;13.59;100.00
46129;BME280;31860;45.186;5.790;2024-02-26T22:18:31;97706.91;;;13.57;100.00
46129;BME280;31860;45.186;5.790;2024-02-26T22:20:56;97715.72;;;13.54;100.00
46129;BME280;31860;45.186;5.790;2024-02-26T22:23:22;97723.72;;;13.51;100.00
46129;BME280;31860;45.186;5.790;2024-02-26T22:25:47;97724.72;;;13.47;100.00
46129;BME280;31860;45.186;5.790;2024-02-26T22:28:12;97725.75;;;13.43;100.00
46129;BME280;31860;45.186;5.790;2024-02-26T22:30:38;97720.56;;;13.42;100.00
46129;BME280;31860;45.186;5.790;2024-02-26T22:33:04;97724.06;;;13.41;100.00
46129;BME280;31860;45.186;5.790;2024-02-26T22:35:29;97723.19;;;13.42;100.00
46129;BME280;31860;45.186;5.790;2024-02-26T22:37:54;97728.50;;;13.40;100.00
46129;BME280;31860;45.186;5.790;2024-02-26T22:40:20;97729.28;;;13.42;100.00
46129;BME280;31860;45.186;5.790;2024-02-26T22:42:45;97729.22;;;13.44;100.00
46129;BME280;31860;45.186;5.790;2024-02-26T22:45:12;97734.34;;;13.47;100.00
46129;BME280;31860;45.186;5.790;2024-02-26T22:47:39;97737.78;;;13.49;100.00
46129;BME280;31860;45.186;5.790;2024-02-26T22:50:06;97741.22;;;13.51;100.00
46129;BME280;31860;45.186;5.790;2024-02-26T22:52:31;97742.13;;;13.50;100.00
46129;BME280;31860;45.186;5.790;2024-02-26T22:54:57;97734.34;;;13.47;100.00
46129;BME280;31860;45.186;5.790;2024-02-26T22:57:22;97741.41;;;13.46;100.00
46129;BME280;31860;45.186;5.790;2024-02-26T22:59:47;97741.47;;;13.43;100.00
46129;BME280;31860;45.186;5.790;2024-02-26T23:02:13;97750.22;;;13.44;100.00
46129;BME280;31860;45.186;5.790;2024-02-26T23:04:39;97747.53;;;13.45;100.00
46129;BME280;31860;45.186;5.790;2024-02-26T23:07:04;97751.81;;;13.48;100.00
46129;BME280;31860;45.186;5.790;2024-02-26T23:09:30;97763.28;;;13.45;100.00
46129;BME280;31860;45.186;5.790;2024-02-26T23:11:55;97769.38;;;13.46;100.00
46129;BME280;31860;45.186;5.790;2024-02-26T23:14:20;97771.06;;;13.47;100.00
46129;BME280;31860;45.186;5.790;2024-02-26T23:16:46;97766.63;;;13.49;100.00
46129;BME280;31860;45.186;5.790;2024-02-26T23:19:11;97773.63;;;13.50;100.00
46129;BME280;31860;45.186;5.790;2024-02-26T23:21:37;97775.31;;;13.51;100.00
46129;BME280;31860;45.186;5.790;2024-02-26T23:24:03;97778.75;;;13.53;100.00
46129;BME280;31860;45.186;5.790;2024-02-26T23:26:28;97773.50;;;13.53;100.00
46129;BME280;31860;45.186;5.790;2024-02-26T23:28:53;97780.47;;;13.54;100.00
46129;BME280;31860;45.186;5.790;2024-02-26T23:31:19;97782.16;;;13.55;100.00
46129;BME280;31860;45.186;5.790;2024-02-26T23:33:44;97773.34;;;13.57;100.00
46129;BME280;31860;45.186;5.790;2024-02-26T23:36:10;97780.28;;;13.58;100.00
46129;BME280;31860;45.186;5.790;2024-02-26T23:38:35;97774.97;;;13.61;100.00
46129;BME280;31860;45.186;5.790;2024-02-26T23:41:00;97775.78;;;13.62;100.00
46129;BME280;31860;45.186;5.790;2024-02-26T23:43:27;97780.28;;;13.58;100.00
46129;BME280;31860;45.186;5.790;2024-02-26T23:45:52;97781.22;;;13.57;100.00
46129;BME280;31860;45.186;5.790;2024-02-26T23:48:18;97777.66;;;13.58;100.00
46129;BME280;31860;45.186;5.790;2024-02-26T23:50:43;97785.59;;;13.57;100.00
46129;BME280;31860;45.186;5.790;2024-02-26T23:53:09;97791.75;;;13.56;100.00
46129;BME280;31860;45.186;5.790;2024-02-26T23:55:34;97784.72;;;13.56;100.00
46129;BME280;31860;45.186;5.790;2024-02-26T23:58:00;97780.28;;;13.58;100.00
